This is the latest recevied weather packets stored in our database for station/object WMKM. If no packets are shown the sender has not sent any weather packets the latest 10 day(s).
| Time | Temp. | Humidity | Pressure | Rain* | Wind** | Luminosity | Snow |
|---|---|---|---|---|---|---|---|
| 1777860642 | 28.89° C | 74% | 1012 hPa | - | - | - | - |
| 1777857045 | 26.67° C | 83% | 1011 hPa | - | - | - | - |
| 1777853442 | 25° C | 94% | 1010 hPa | - | - | - | - |
| 1777849842 | 23.89° C | 94% | 1009 hPa | - | - | - | - |
| 1777846258 | 23.89° C | 94% | 1009 hPa | - | - | - | - |
| 1777842644 | 23.89° C | 10% | - | - | - | - | - |
| 1777839041 | 25° C | 94% | 1009 hPa | - | - | - | - |
| 1777835442 | 25° C | 94% | 1009 hPa | - | - | - | - |
| 1777831841 | 25° C | 94% | 1009 hPa | - | - | - | - |
| 1777828258 | 25° C | 94% | 1010 hPa | - | - | - | - |
| 1777824641 | 25° C | 94% | 1010 hPa | - | - | - | - |
| 1777821046 | 25° C | 88% | 1010 hPa | - | - | - | - |
| 1777817438 | 25° C | 88% | 1010 hPa | - | - | - | - |
| 1777814995 | 25° C | 94% | 1009 hPa | - | - | - | - |
| 1777813838 | 25° C | 94% | 1009 hPa | - | - | - | - |
| 1777810259 | 25° C | 94% | 1008 hPa | - | - | - | - |
| 1777806644 | 25° C | 88% | 1008 hPa | - | - | - | - |
| 1777803041 | 28.89° C | 74% | 1007 hPa | - | - | - | - |
| 1777799440 | 31.67° C | 62% | 1006 hPa | - | - | - | - |
| 1777795858 | 31.67° C | 66% | 1006 hPa | - | - | - | - |
| 1777792242 | 31.67° C | 66% | 1007 hPa | - | - | - | - |
| 1777788641 | 31.67° C | 62% | 1008 hPa | - | - | - | - |
| 1777785040 | 32.78° C | 59% | 1009 hPa | - | - | - | - |
| 1777781457 | 31.67° C | 62% | 1010 hPa | - | - | - | - |
| 1777777842 | 31.67° C | 62% | 1011 hPa | - | - | - | - |
* Rain since midnight (hover to see other rain measurements)
** Current wind speed in m/s (hover to see current wind gust speed)